PWSweather.com
Personal Weather Stations
Station Observations
LW1DRJ
MorenoAR 17441

MorenoAR 17441

Lat: -34.6340099, Lon: -58.791382

Elevation: 19

Station Type: Fine Offset

http://www.lw1drj.com.ar/clima

High Low Average
Temperature 71.2°F21.8°C 51.8°F11.0°C 62.2°F16.8°C
Dew Point 62.7°F17.1°C 31.0°F-0.6°C 48.5°F9.2°C
Winds 9.2 mph 14.8 kmh 0.7 mph 1.1 kmh 5.0 mph ESE8.0 kmh ESE
Wind Gusts 19.0 mph30.6 kmh 6.9 mph11.1 kmh 13.0 mph20.9 kmh
Humidity 99% 29% 64%
Pressure 30.17 in1021.7 mb 29.91 in1012.9 mb -
Precipitation 0.14 in3.6 mm - -
Hour Temp Dew Point Humidity Winds Wind Gusts Pressure Precip Precip Rate Daily Precip Total
12:00 AM 56.8°F13.8°C 56.6°F13.7°C 99% 5.4 mph SSE8.7 kmh SSE 15.2 mph24.5 kmh 30.04 in1017.3 mb 0.08 in2.0 mm 0.00 in0.0 mm 0.08 in2.0 mm
12:20 AM 55.8°F13.2°C 55.5°F13.1°C 99% 6.0 mph S9.7 kmh S 15.2 mph24.5 kmh 30.03 in1016.9 mb 0.07 in1.8 mm 0.00 in0.0 mm 0.02 in0.5 mm
12:40 AM 55.4°F13.0°C 55.1°F12.8°C 99% 1.6 mph SSE2.6 kmh SSE 12.1 mph19.5 kmh 30.07 in1018.3 mb 0.11 in2.8 mm 0.12 in3.0 mm 0.07 in1.8 mm
01:00 AM 55.2°F12.9°C 54.9°F12.7°C 99% 2.2 mph SSE3.5 kmh SSE 7.6 mph12.2 kmh 30.08 in1018.6 mb 0.12 in3.0 mm 0.02 in0.5 mm 0.12 in3.0 mm
01:20 AM 54.5°F12.5°C 54.2°F12.3°C 99% 2.2 mph SW3.5 kmh SW 13.0 mph20.9 kmh 30.09 in1019.0 mb 0.11 in2.8 mm 0.00 in0.0 mm 0.13 in3.3 mm
01:40 AM 53.2°F11.8°C 53.0°F11.7°C 99% 4.5 mph SE7.2 kmh SE 12.1 mph19.5 kmh 30.09 in1019.0 mb 0.06 in1.5 mm 0.00 in0.0 mm 0.13 in3.3 mm
02:00 AM 51.8°F11.0°C 51.5°F10.8°C 99% 3.1 mph SE5.0 kmh SE 12.1 mph19.5 kmh 30.10 in1019.3 mb 0.02 in0.5 mm 0.00 in0.0 mm 0.14 in3.6 mm
02:20 AM 52.9°F11.6°C 52.6°F11.4°C 99% 6.0 mph SE9.7 kmh SE 13.0 mph20.9 kmh 30.10 in1019.3 mb 0.01 in0.3 mm 0.00 in0.0 mm 0.14 in3.6 mm
02:40 AM 52.7°F11.5°C 52.4°F11.3°C 99% 2.2 mph SE3.5 kmh SE 10.7 mph17.2 kmh 30.10 in1019.3 mb 0.01 in0.3 mm 0.00 in0.0 mm 0.14 in3.6 mm
03:00 AM 52.7°F11.5°C 51.3°F10.7°C 95% 1.6 mph SE2.6 kmh SE 10.7 mph17.2 kmh 30.10 in1019.3 mb 0.00 in0.0 mm 0.00 in0.0 mm 0.14 in3.6 mm
03:20 AM 52.9°F11.6°C 49.1°F9.5°C 87% 1.6 mph SE2.6 kmh SE 8.3 mph13.4 kmh 30.12 in1020.0 mb 0.00 in0.0 mm 0.00 in0.0 mm 0.14 in3.6 mm
03:40 AM 52.5°F11.4°C 47.5°F8.6°C 83% 0.7 mph SE1.1 kmh SE 9.2 mph14.8 kmh 30.13 in1020.3 mb 0.00 in0.0 mm 0.00 in0.0 mm 0.14 in3.6 mm
04:00 AM 52.3°F11.3°C 48.0°F8.9°C 85% 2.2 mph SSE3.5 kmh SSE 6.9 mph11.1 kmh 30.13 in1020.3 mb 0.00 in0.0 mm 0.00 in0.0 mm 0.14 in3.6 mm
04:20 AM 52.2°F11.2°C 46.5°F8.1°C 81% 4.5 mph SE7.2 kmh SE 9.8 mph15.8 kmh 30.14 in1020.7 mb 0.00 in0.0 mm 0.00 in0.0 mm 0.14 in3.6 mm
04:40 AM 52.0°F11.1°C 43.6°F6.4°C 73% 5.4 mph SE8.7 kmh SE 12.1 mph19.5 kmh 30.15 in1021.0 mb 0.00 in0.0 mm 0.00 in0.0 mm 0.14 in3.6 mm
05:00 AM 52.3°F11.3°C 44.6°F7.0°C 75% 4.5 mph SE7.2 kmh SE 10.7 mph17.2 kmh 30.14 in1020.7 mb 0.00 in0.0 mm 0.00 in0.0 mm 0.14 in3.6 mm
05:20 AM 52.2°F11.2°C 43.4°F6.3°C 72% 1.6 mph SE2.6 kmh SE 8.3 mph13.4 kmh 30.16 in1021.3 mb 0.00 in0.0 mm 0.00 in0.0 mm 0.14 in3.6 mm
05:40 AM 52.7°F11.5°C 42.0°F5.6°C 67% 0.7 mph SE1.1 kmh SE 13.6 mph21.9 kmh 30.16 in1021.3 mb 0.00 in0.0 mm 0.00 in0.0 mm 0.14 in3.6 mm
06:00 AM 52.7°F11.5°C 41.3°F5.2°C 65% 3.1 mph SE5.0 kmh SE 6.9 mph11.1 kmh 30.17 in1021.7 mb 0.00 in0.0 mm 0.00 in0.0 mm 0.14 in3.6 mm
06:20 AM 53.2°F11.8°C 41.4°F5.2°C 64% 4.5 mph ESE7.2 kmh ESE 7.6 mph12.2 kmh 30.17 in1021.7 mb 0.00 in0.0 mm 0.00 in0.0 mm 0.14 in3.6 mm
06:40 AM 54.7°F12.6°C 40.2°F4.6°C 58% 3.1 mph SE5.0 kmh SE 13.0 mph20.9 kmh 30.16 in1021.3 mb 0.00 in0.0 mm 0.00 in0.0 mm 0.14 in3.6 mm
07:00 AM 56.1°F13.4°C 39.7°F4.3°C 54% 4.5 mph SE7.2 kmh SE 13.0 mph20.9 kmh 30.16 in1021.3 mb 0.00 in0.0 mm 0.00 in0.0 mm 0.14 in3.6 mm
07:20 AM 56.7°F13.7°C 34.4°F1.3°C 43% 9.2 mph SE14.8 kmh SE 16.8 mph27.0 kmh 30.16 in1021.3 mb 0.00 in0.0 mm 0.00 in0.0 mm 0.14 in3.6 mm
07:40 AM 57.7°F14.3°C 36.5°F2.5°C 45% 5.4 mph SE8.7 kmh SE 13.6 mph21.9 kmh 30.16 in1021.3 mb 0.00 in0.0 mm 0.00 in0.0 mm 0.14 in3.6 mm
08:00 AM 59.0°F15.0°C 37.1°F2.8°C 44% 7.6 mph SE12.2 kmh SE 15.2 mph24.5 kmh 30.16 in1021.3 mb 0.00 in0.0 mm 0.00 in0.0 mm 0.14 in3.6 mm
08:20 AM 60.4°F15.8°C 36.0°F2.2°C 40% 6.0 mph SE9.7 kmh SE 18.3 mph29.5 kmh 30.17 in1021.7 mb 0.00 in0.0 mm 0.00 in0.0 mm 0.14 in3.6 mm
08:40 AM 60.6°F15.9°C 33.5°F0.8°C 36% 7.6 mph ESE12.2 kmh ESE 18.3 mph29.5 kmh 30.16 in1021.3 mb 0.00 in0.0 mm 0.00 in0.0 mm 0.14 in3.6 mm
09:00 AM 63.0°F17.2°C 31.0°F-0.6°C 30% 8.3 mph SE13.4 kmh SE 18.3 mph29.5 kmh 30.16 in1021.3 mb 0.00 in0.0 mm 0.00 in0.0 mm 0.14 in3.6 mm
09:20 AM 63.3°F17.4°C 32.1°F0.1°C 31% 6.0 mph ESE9.7 kmh ESE 13.6 mph21.9 kmh 30.15 in1021.0 mb 0.00 in0.0 mm 0.00 in0.0 mm 0.14 in3.6 mm
09:40 AM 64.0°F17.8°C 32.8°F0.4°C 31% 4.5 mph E7.2 kmh E 19.0 mph30.6 kmh 30.14 in1020.7 mb 0.00 in0.0 mm 0.00 in0.0 mm 0.14 in3.6 mm
10:00 AM 65.5°F18.6°C 32.4°F0.2°C 29% 7.6 mph E12.2 kmh E 17.4 mph28.0 kmh 30.14 in1020.7 mb 0.00 in0.0 mm 0.00 in0.0 mm 0.14 in3.6 mm
10:20 AM 66.4°F19.1°C 34.8°F1.6°C 31% 6.9 mph ESE11.1 kmh ESE 18.3 mph29.5 kmh 30.15 in1021.0 mb 0.00 in0.0 mm 0.00 in0.0 mm 0.14 in3.6 mm
10:40 AM 68.0°F20.0°C 40.7°F4.8°C 37% 6.0 mph SE9.7 kmh SE 16.8 mph27.0 kmh 30.14 in1020.7 mb 0.00 in0.0 mm 0.00 in0.0 mm 0.14 in3.6 mm
11:00 AM 68.9°F20.5°C 43.6°F6.4°C 40% 3.8 mph SE6.1 kmh SE 12.1 mph19.5 kmh 30.13 in1020.3 mb 0.00 in0.0 mm 0.00 in0.0 mm 0.14 in3.6 mm
11:20 AM 67.5°F19.7°C 46.5°F8.1°C 47% 3.1 mph ESE5.0 kmh ESE 13.0 mph20.9 kmh 30.12 in1020.0 mb 0.00 in0.0 mm 0.00 in0.0 mm 0.14 in3.6 mm
11:40 AM 66.7°F19.3°C 44.1°F6.7°C 44% 8.3 mph E13.4 kmh E 12.1 mph19.5 kmh 30.12 in1020.0 mb 0.00 in0.0 mm 0.00 in0.0 mm 0.14 in3.6 mm
12:00 PM 66.0°F18.9°C 44.6°F7.0°C 46% 6.0 mph ESE9.7 kmh ESE 11.4 mph18.3 kmh 30.12 in1020.0 mb 0.00 in0.0 mm 0.00 in0.0 mm 0.14 in3.6 mm
12:20 PM 65.7°F18.7°C 47.0°F8.3°C 51% 6.0 mph SE9.7 kmh SE 14.5 mph23.3 kmh 30.10 in1019.3 mb 0.00 in0.0 mm 0.00 in0.0 mm 0.14 in3.6 mm
12:40 PM 68.0°F20.0°C 47.6°F8.7°C 48% 9.2 mph ENE14.8 kmh ENE 15.2 mph24.5 kmh 30.09 in1019.0 mb 0.00 in0.0 mm 0.00 in0.0 mm 0.14 in3.6 mm
01:00 PM 68.0°F20.0°C 47.6°F8.7°C 48% 8.3 mph E13.4 kmh E 17.4 mph28.0 kmh 30.09 in1019.0 mb 0.00 in0.0 mm 0.00 in0.0 mm 0.14 in3.6 mm
01:20 PM 69.1°F20.6°C 48.0°F8.9°C 47% 8.3 mph SE13.4 kmh SE 15.2 mph24.5 kmh 30.07 in1018.3 mb 0.00 in0.0 mm 0.00 in0.0 mm 0.14 in3.6 mm
01:40 PM 69.4°F20.8°C 47.8°F8.8°C 46% 3.8 mph E6.1 kmh E 13.6 mph21.9 kmh 30.07 in1018.3 mb 0.00 in0.0 mm 0.00 in0.0 mm 0.14 in3.6 mm
02:00 PM 70.5°F21.4°C 46.3°F7.9°C 42% 5.4 mph E8.7 kmh E 12.1 mph19.5 kmh 30.06 in1017.9 mb 0.00 in0.0 mm 0.00 in0.0 mm 0.14 in3.6 mm
02:20 PM 70.5°F21.4°C 46.3°F7.9°C 42% 6.9 mph ESE11.1 kmh ESE 15.2 mph24.5 kmh 30.05 in1017.6 mb 0.00 in0.0 mm 0.00 in0.0 mm 0.14 in3.6 mm
02:40 PM 71.2°F21.8°C 47.6°F8.7°C 43% 5.4 mph E8.7 kmh E 13.6 mph21.9 kmh 30.04 in1017.3 mb 0.00 in0.0 mm 0.00 in0.0 mm 0.14 in3.6 mm
03:00 PM 70.9°F21.6°C 47.9°F8.8°C 44% 3.8 mph E6.1 kmh E 13.6 mph21.9 kmh 30.04 in1017.3 mb 0.00 in0.0 mm 0.00 in0.0 mm 0.14 in3.6 mm
03:08 PM 68.5°F20.3°C 48.1°F8.9°C 48% 1.6 mph E2.6 kmh E 7.0 mph11.3 kmh 30.04 in1017.3 mb 0.00 in0.0 mm 0.00 in0.0 mm 0.14 in3.6 mm
03:20 PM 68.2°F20.1°C 49.4°F9.7°C 51% 3.8 mph ENE6.1 kmh ENE 9.2 mph14.8 kmh 30.01 in1016.3 mb 0.00 in0.0 mm 0.00 in0.0 mm 0.14 in3.6 mm
03:40 PM 68.4°F20.2°C 51.1°F10.6°C 54% 5.4 mph E8.7 kmh E 15.9 mph25.6 kmh 29.97 in1014.9 mb 0.00 in0.0 mm 0.00 in0.0 mm 0.14 in3.6 mm
04:00 PM 69.8°F21.0°C 51.4°F10.8°C 52% 5.4 mph ESE8.7 kmh ESE 17.4 mph28.0 kmh 29.94 in1013.9 mb 0.00 in0.0 mm 0.00 in0.0 mm 0.14 in3.6 mm
04:20 PM 68.7°F20.4°C 51.9°F11.1°C 55% 2.2 mph E3.5 kmh E 14.5 mph23.3 kmh 29.96 in1014.6 mb 0.00 in0.0 mm 0.00 in0.0 mm 0.14 in3.6 mm
04:40 PM 68.5°F20.3°C 53.2°F11.8°C 58% 1.6 mph SE2.6 kmh SE 7.6 mph12.2 kmh 29.96 in1014.6 mb 0.00 in0.0 mm 0.00 in0.0 mm 0.14 in3.6 mm
05:00 PM 68.2°F20.1°C 53.8°F12.1°C 60% 6.0 mph E9.7 kmh E 14.5 mph23.3 kmh 29.91 in1012.9 mb 0.00 in0.0 mm 0.00 in0.0 mm 0.14 in3.6 mm
05:20 PM 68.5°F20.3°C 55.0°F12.8°C 62% 5.4 mph E8.7 kmh E 15.9 mph25.6 kmh 29.93 in1013.5 mb 0.00 in0.0 mm 0.00 in0.0 mm 0.14 in3.6 mm
05:40 PM 66.9°F19.4°C 54.3°F12.4°C 64% 5.4 mph ESE8.7 kmh ESE 13.6 mph21.9 kmh 29.92 in1013.2 mb 0.00 in0.0 mm 0.00 in0.0 mm 0.14 in3.6 mm
06:00 PM 66.9°F19.4°C 55.6°F13.1°C 67% 5.4 mph SE8.7 kmh SE 10.7 mph17.2 kmh 29.93 in1013.5 mb 0.00 in0.0 mm 0.00 in0.0 mm 0.14 in3.6 mm
06:20 PM 66.0°F18.9°C 55.2°F12.9°C 68% 5.4 mph E8.7 kmh E 15.9 mph25.6 kmh 29.93 in1013.5 mb 0.00 in0.0 mm 0.00 in0.0 mm 0.14 in3.6 mm
06:40 PM 66.6°F19.2°C 55.7°F13.2°C 68% 3.8 mph E6.1 kmh E 10.7 mph17.2 kmh 29.93 in1013.5 mb 0.00 in0.0 mm 0.00 in0.0 mm 0.14 in3.6 mm
07:00 PM 64.9°F18.3°C 55.3°F12.9°C 71% 3.1 mph SE5.0 kmh SE 6.9 mph11.1 kmh 29.93 in1013.5 mb 0.00 in0.0 mm 0.00 in0.0 mm 0.14 in3.6 mm
07:20 PM 64.9°F18.3°C 55.7°F13.2°C 72% 5.4 mph SE8.7 kmh SE 15.9 mph25.6 kmh 29.93 in1013.5 mb 0.00 in0.0 mm 0.00 in0.0 mm 0.14 in3.6 mm
07:40 PM 64.8°F18.2°C 56.3°F13.5°C 74% 6.0 mph ESE9.7 kmh ESE 10.7 mph17.2 kmh 29.93 in1013.5 mb 0.00 in0.0 mm 0.00 in0.0 mm 0.14 in3.6 mm
08:00 PM 65.1°F18.4°C 57.4°F14.1°C 76% 7.6 mph SE12.2 kmh SE 10.7 mph17.2 kmh 29.93 in1013.5 mb 0.00 in0.0 mm 0.00 in0.0 mm 0.14 in3.6 mm
08:20 PM 65.3°F18.5°C 57.5°F14.2°C 76% 4.5 mph ESE7.2 kmh ESE 11.4 mph18.3 kmh 29.93 in1013.5 mb 0.00 in0.0 mm 0.00 in0.0 mm 0.14 in3.6 mm
08:40 PM 64.9°F18.3°C 58.3°F14.6°C 79% 3.1 mph ESE5.0 kmh ESE 9.2 mph14.8 kmh 29.93 in1013.5 mb 0.00 in0.0 mm 0.00 in0.0 mm 0.14 in3.6 mm
09:00 PM 64.6°F18.1°C 58.6°F14.8°C 81% 3.1 mph E5.0 kmh E 9.8 mph15.8 kmh 29.93 in1013.5 mb 0.00 in0.0 mm 0.00 in0.0 mm 0.14 in3.6 mm
09:20 PM 65.5°F18.6°C 60.2°F15.7°C 83% 3.8 mph ESE6.1 kmh ESE 11.4 mph18.3 kmh 29.93 in1013.5 mb 0.00 in0.0 mm 0.00 in0.0 mm 0.14 in3.6 mm
09:40 PM 64.9°F18.3°C 60.6°F15.9°C 86% 3.8 mph E6.1 kmh E 9.8 mph15.8 kmh 29.93 in1013.5 mb 0.00 in0.0 mm 0.00 in0.0 mm 0.14 in3.6 mm
10:00 PM 65.8°F18.8°C 61.9°F16.6°C 87% 2.2 mph ESE3.5 kmh ESE 9.8 mph15.8 kmh 29.93 in1013.5 mb 0.00 in0.0 mm 0.00 in0.0 mm 0.14 in3.6 mm
10:20 PM 66.4°F19.1°C 62.7°F17.1°C 88% 3.1 mph ESE5.0 kmh ESE 9.2 mph14.8 kmh 29.93 in1013.5 mb 0.00 in0.0 mm 0.00 in0.0 mm 0.14 in3.6 mm
10:40 PM 66.4°F19.1°C 62.7°F17.1°C 88% 3.8 mph ESE6.1 kmh ESE 8.3 mph13.4 kmh 29.93 in1013.5 mb 0.00 in0.0 mm 0.00 in0.0 mm 0.14 in3.6 mm
10:48 PM 66.2°F19.0°C 62.5°F16.9°C 88% 4.5 mph SE7.2 kmh SE 7.6 mph12.2 kmh 29.92 in1013.2 mb 0.00 in0.0 mm 0.00 in0.0 mm 0.14 in3.6 mm
10:58 PM 66.4°F19.1°C 62.7°F17.1°C 88% 4.5 mph ESE7.2 kmh ESE 9.2 mph14.8 kmh 29.91 in1012.9 mb 0.00 in0.0 mm 0.00 in0.0 mm 0.14 in3.6 mm
11:08 PM 66.2°F19.0°C 62.5°F16.9°C 88% 3.1 mph NE5.0 kmh NE 9.2 mph14.8 kmh 29.91 in1012.9 mb 0.00 in0.0 mm 0.00 in0.0 mm 0.14 in3.6 mm
11:18 PM 66.6°F19.2°C 62.9°F17.2°C 88% 3.8 mph E6.1 kmh E 6.9 mph11.1 kmh 29.91 in1012.9 mb 0.00 in0.0 mm 0.00 in0.0 mm 0.14 in3.6 mm
11:28 PM 66.9°F19.4°C 62.3°F16.8°C 85% 2.2 mph E3.5 kmh E 6.9 mph11.1 kmh 29.90 in1012.5 mb 0.00 in0.0 mm 0.00 in0.0 mm 0.14 in3.6 mm
11:38 PM 66.7°F19.3°C 60.0°F15.6°C 79% 5.4 mph NE8.7 kmh NE 8.3 mph13.4 kmh 29.90 in1012.5 mb 0.00 in0.0 mm 0.00 in0.0 mm 0.14 in3.6 mm
11:48 PM 66.6°F19.2°C 58.4°F14.7°C 75% 3.8 mph SE6.1 kmh SE 8.3 mph13.4 kmh 29.89 in1012.2 mb 0.00 in0.0 mm 0.00 in0.0 mm 0.14 in3.6 mm
11:58 PM 67.5°F19.7°C 58.9°F14.9°C 74% 3.1 mph SE5.0 kmh SE 6.9 mph11.1 kmh 29.89 in1012.2 mb 0.00 in0.0 mm 0.00 in0.0 mm 0.14 in3.6 mm